Time;durP1;ratioP1;P1;durP2;ratioP2;P2;SDS_P1;SDS_P2;PMS_P1;PMS_P2;Temp;Humidity;BMP_temperature;BMP_pressure;BME280_temperature;BME280_humidity;BME280_pressure;Samples;Min_cycle;Max_cycle;Signal;HPM_P1;HPM_P2
2022/12/23 00:00:18;;;;;;;12.13;6.93;;;6.30;99.90;;;;;;5073572;28;20211;-75
2022/12/23 00:02:44;;;;;;;7.03;6.10;;;6.20;99.90;;;;;;5069145;28;20683;-75
2022/12/23 00:05:10;;;;;;;8.15;6.10;;;6.20;99.90;;;;;;5077002;28;20274;-74
2022/12/23 00:07:36;;;;;;;8.90;7.05;;;6.20;99.90;;;;;;5065687;28;20171;-75
2022/12/23 00:10:02;;;;;;;15.82;8.32;;;6.30;99.90;;;;;;5070794;28;20665;-75
2022/12/23 00:15:12;;;;;;;13.23;9.30;;;6.30;99.90;;;;;;5076586;28;20185;-74
2022/12/23 00:17:43;;;;;;;13.15;7.85;;;6.30;99.90;;;;;;5070146;28;20208;-75
2022/12/23 00:20:12;;;;;;;11.85;9.73;;;6.30;99.90;;;;;;5068574;28;20218;-76
2022/12/23 00:25:42;;;;;;;14.00;9.20;;;6.20;99.90;;;;;;5069996;28;20206;-75
2022/12/23 00:28:10;;;;;;;10.57;8.18;;;6.20;99.90;;;;;;5071513;28;20175;-76
2022/12/23 00:30:45;;;;;;;17.83;9.43;;;6.20;99.90;;;;;;5070223;28;20191;-75
2022/12/23 00:33:12;;;;;;;16.70;9.50;;;6.20;99.90;;;;;;5061509;28;20212;-75
2022/12/23 00:35:37;;;;;;;11.15;7.93;;;6.10;99.90;;;;;;5070287;28;20224;-75
2022/12/23 00:38:03;;;;;;;11.63;7.90;;;6.10;99.90;;;;;;5069190;28;20271;-76
2022/12/23 00:43:13;;;;;;;14.73;8.70;;;6.20;99.90;;;;;;5065496;28;20243;-76
2022/12/23 00:45:38;;;;;;;13.63;8.50;;;6.20;99.90;;;;;;5069653;28;20182;-75
2022/12/23 00:50:51;;;;;;;13.35;8.57;;;6.20;99.90;;;;;;5069445;28;20210;-75
2022/12/23 00:53:16;;;;;;;12.98;8.05;;;6.20;99.90;;;;;;5062810;28;20179;-75
2022/12/23 00:55:45;;;;;;;12.57;9.15;;;6.10;99.90;;;;;;5063006;28;20183;-75
2022/12/23 00:58:10;;;;;;;14.95;8.77;;;6.10;99.90;;;;;;5065652;28;20179;-75
2022/12/23 01:06:04;;;;;;;13.35;9.45;;;6.20;99.90;;;;;;5065309;28;20191;-76
2022/12/23 01:08:30;;;;;;;18.02;8.75;;;6.10;99.90;;;;;;5066820;28;20179;-75
2022/12/23 01:10:55;;;;;;;15.27;8.52;;;6.20;99.90;;;;;;5069685;28;20200;-75
2022/12/23 01:13:21;;;;;;;12.63;9.15;;;6.10;99.90;;;;;;5070420;28;20179;-75
2022/12/23 01:15:46;;;;;;;14.32;10.68;;;6.10;99.90;;;;;;5062704;28;20529;-75
2022/12/23 01:18:12;;;;;;;13.05;8.68;;;6.10;99.90;;;;;;5069482;28;20190;-75
2022/12/23 01:20:39;;;;;;;11.63;8.98;;;6.10;99.90;;;;;;5069020;28;20190;-76
2022/12/23 01:23:05;;;;;;;15.77;8.85;;;6.20;99.90;;;;;;5065482;28;20245;-76
2022/12/23 01:25:31;;;;;;;13.18;8.98;;;6.20;99.90;;;;;;5060957;28;20179;-76
2022/12/23 01:27:56;;;;;;;9.95;8.30;;;6.20;99.90;;;;;;5073123;28;20573;-76
2022/12/23 01:30:22;;;;;;;11.48;9.27;;;6.20;99.90;;;;;;5066228;28;20198;-76
2022/12/23 01:32:48;;;;;;;12.60;8.90;;;6.20;99.90;;;;;;5068651;28;20191;-75
2022/12/23 01:35:13;;;;;;;11.45;9.23;;;6.30;99.90;;;;;;5069503;28;20190;-76
2022/12/23 01:37:39;;;;;;;12.20;9.52;;;6.30;99.90;;;;;;5068996;28;20270;-75
2022/12/23 01:40:06;;;;;;;11.25;8.50;;;6.30;99.90;;;;;;5069695;28;20215;-75
2022/12/23 01:42:44;;;;;;;13.85;8.88;;;6.10;99.90;;;;;;5067264;28;20677;-75
2022/12/23 01:45:18;;;;;;;9.32;8.35;;;6.10;99.90;;;;;;5078045;28;20194;-75
2022/12/23 01:47:46;;;;;;;12.15;8.77;;;6.20;99.90;;;;;;5067532;28;20266;-77
2022/12/23 01:50:19;;;;;;;11.88;8.48;;;6.20;99.90;;;;;;5072450;28;20554;-77
2022/12/23 01:53:04;;;;;;;13.25;9.27;;;6.10;99.90;;;;;;5065601;28;20178;-76
2022/12/23 01:55:34;;;;;;;11.68;8.55;;;6.00;99.90;;;;;;5061602;28;20665;-76
2022/12/23 01:58:09;;;;;;;13.98;8.65;;;6.10;99.90;;;;;;5067023;28;20206;-76
2022/12/23 02:12:03;;;;;;;16.73;9.52;;;6.20;99.90;;;;;;5066405;28;20250;-75
2022/12/23 02:18:25;;;;;;;12.90;9.35;;;6.20;99.90;;;;;;5066796;28;20289;-75
2022/12/23 02:21:12;;;;;;;11.88;9.82;;;6.10;99.90;;;;;;5004875;28;20614;-75
2022/12/23 02:23:56;;;;;;;13.27;9.45;;;6.20;99.90;;;;;;5006952;28;20216;-75
2022/12/23 02:26:33;;;;;;;9.38;8.45;;;6.20;99.90;;;;;;5051359;28;20215;-75
2022/12/23 02:29:29;;;;;;;15.35;9.15;;;6.20;99.90;;;;;;5066084;28;20175;-76
2022/12/23 02:32:54;;;;;;;11.88;8.82;;;6.20;99.90;;;;;;5067019;28;20195;-75
2022/12/23 02:35:53;;;;;;;13.07;9.55;;;6.20;99.90;;;;;;5012388;28;20641;-75
2022/12/23 02:38:22;;;;;;;12.23;9.65;;;6.20;99.90;;;;;;5018512;28;20674;-75
2022/12/23 02:41:10;;;;;;;12.23;9.55;;;6.30;99.90;;;;;;5067431;28;20748;-76
2022/12/23 02:44:04;;;;;;;10.75;8.73;;;6.20;99.90;;;;;;5072149;28;20242;-75
2022/12/23 02:46:35;;;;;;;9.85;8.80;;;6.20;99.90;;;;;;5071990;28;20175;-75
2022/12/23 02:49:24;;;;;;;12.73;9.23;;;6.20;99.90;;;;;;5073988;28;20248;-76
2022/12/23 02:51:53;;;;;;;10.25;9.27;;;6.20;99.90;;;;;;5063215;28;20549;-76
2022/12/23 02:54:31;;;;;;;10.82;9.68;;;6.20;99.90;;;;;;5065704;28;20188;-76
2022/12/23 02:57:00;;;;;;;9.18;8.20;;;6.10;99.90;;;;;;5072773;28;20266;-76
2022/12/23 02:59:30;;;;;;;12.15;9.48;;;6.10;99.90;;;;;;5073707;28;20199;-76
2022/12/23 03:01:56;;;;;;;11.38;10.20;;;6.20;99.90;;;;;;5070994;28;20210;-75
2022/12/23 03:04:22;;;;;;;9.07;8.02;;;6.10;99.90;;;;;;5066710;28;20175;-75
2022/12/23 03:06:52;;;;;;;10.13;9.10;;;6.00;99.90;;;;;;5068535;28;20233;-75
2022/12/23 03:09:35;;;;;;;11.90;8.85;;;6.20;99.90;;;;;;5068764;28;20183;-75
2022/12/23 03:12:05;;;;;;;10.23;7.63;;;6.20;99.90;;;;;;5066846;28;20571;-76
2022/12/23 03:14:43;;;;;;;12.48;9.20;;;6.20;99.90;;;;;;5068568;28;20318;-76
2022/12/23 03:17:24;;;;;;;10.68;9.57;;;6.20;99.90;;;;;;5070560;28;20191;-76
2022/12/23 03:20:05;;;;;;;11.52;9.93;;;6.20;99.90;;;;;;5068874;28;20206;-75
2022/12/23 03:22:42;;;;;;;9.77;8.70;;;6.20;99.90;;;;;;5064431;28;20638;-76
2022/12/23 03:25:17;;;;;;;9.77;8.82;;;6.20;99.90;;;;;;5068398;28;20231;-75
2022/12/23 03:27:51;;;;;;;10.18;9.07;;;6.20;99.90;;;;;;5071690;28;20552;-77
2022/12/23 03:30:18;;;;;;;10.07;8.95;;;6.20;99.90;;;;;;5063854;28;20560;-76
2022/12/23 03:33:12;;;;;;;10.55;9.55;;;6.20;99.90;;;;;;5070784;28;20182;-76
2022/12/23 03:35:46;;;;;;;9.30;8.38;;;6.20;99.90;;;;;;5069832;28;20175;-76
2022/12/23 03:38:14;;;;;;;11.05;9.73;;;6.30;99.90;;;;;;5067732;28;20666;-76
2022/12/23 03:40:53;;;;;;;10.38;9.30;;;6.20;99.90;;;;;;5065748;28;20717;-76
2022/12/23 03:43:42;;;;;;;9.40;8.50;;;6.30;99.90;;;;;;5066210;28;20519;-76
2022/12/23 03:46:18;;;;;;;10.25;9.02;;;6.30;99.90;;;;;;5071256;28;20245;-76
2022/12/23 03:48:55;;;;;;;10.45;9.30;;;6.30;99.90;;;;;;5069436;28;20190;-75
2022/12/23 03:51:30;;;;;;;8.38;7.65;;;6.30;99.90;;;;;;5065432;28;20191;-75
2022/12/23 03:54:03;;;;;;;9.63;8.73;;;6.20;99.90;;;;;;5077715;28;20182;-76
2022/12/23 03:56:39;;;;;;;9.65;8.60;;;6.20;99.90;;;;;;5079347;28;20174;-75
2022/12/23 03:59:10;;;;;;;10.55;9.45;;;6.20;99.90;;;;;;5074472;28;20252;-74
2022/12/23 04:01:40;;;;;;;9.05;8.15;;;6.20;99.90;;;;;;5070295;28;20624;-75
2022/12/23 04:04:13;;;;;;;9.95;9.02;;;6.20;99.90;;;;;;5078141;28;20199;-75
2022/12/23 04:06:49;;;;;;;10.40;9.40;;;6.10;99.90;;;;;;5069596;28;20197;-76
2022/12/23 04:09:17;;;;;;;10.30;9.00;;;6.10;99.90;;;;;;5070548;28;20167;-76
2022/12/23 04:11:42;;;;;;;9.73;8.75;;;6.20;99.90;;;;;;5064697;28;20175;-76
2022/12/23 04:14:08;;;;;;;9.75;8.80;;;6.10;99.90;;;;;;5071347;28;20237;-75
2022/12/23 04:16:34;;;;;;;13.27;9.60;;;6.10;99.90;;;;;;5067684;28;20279;-76
2022/12/23 04:18:59;;;;;;;9.73;8.65;;;6.10;99.90;;;;;;5071207;28;20203;-77
2022/12/23 04:21:25;;;;;;;10.10;8.93;;;6.00;99.90;;;;;;5069051;28;20661;-76
2022/12/23 04:23:51;;;;;;;10.27;9.27;;;6.10;99.90;;;;;;5064962;28;20175;-77
2022/12/23 04:26:16;;;;;;;10.30;8.82;;;6.10;99.90;;;;;;5064849;28;20183;-77
2022/12/23 04:28:42;;;;;;;9.20;8.35;;;6.00;99.90;;;;;;5067249;28;20264;-76
2022/12/23 04:31:08;;;;;;;9.80;8.40;;;6.10;99.90;;;;;;5067508;28;20203;-75
2022/12/23 04:33:33;;;;;;;9.80;8.90;;;6.10;99.90;;;;;;5076845;28;20232;-76
2022/12/23 04:35:59;;;;;;;10.52;9.07;;;6.20;99.90;;;;;;5071277;28;20639;-75
2022/12/23 04:38:25;;;;;;;9.30;8.38;;;6.30;99.90;;;;;;5067543;28;20648;-76
2022/12/23 04:40:50;;;;;;;9.23;8.35;;;6.20;99.90;;;;;;5065798;28;20253;-75
2022/12/23 04:43:16;;;;;;;8.52;7.72;;;6.30;99.90;;;;;;5069108;28;20642;-75
2022/12/23 04:45:42;;;;;;;9.55;8.52;;;6.30;99.90;;;;;;5067068;28;20233;-75
2022/12/23 04:48:08;;;;;;;11.38;8.77;;;6.30;99.90;;;;;;5073254;28;20190;-75
2022/12/23 04:50:34;;;;;;;10.95;9.30;;;6.20;99.90;;;;;;5070990;28;20220;-76
2022/12/23 04:52:59;;;;;;;9.43;8.13;;;6.10;99.90;;;;;;5071327;28;20286;-75
2022/12/23 04:55:25;;;;;;;10.63;9.52;;;6.10;99.90;;;;;;5062292;28;20206;-76
2022/12/23 04:57:51;;;;;;;11.50;9.88;;;6.20;99.90;;;;;;5066062;28;20194;-76
2022/12/23 05:00:17;;;;;;;11.32;9.60;;;6.20;99.90;;;;;;5065378;28;20210;-75
2022/12/23 05:02:42;;;;;;;10.85;9.75;;;6.00;99.90;;;;;;5061272;28;20200;-75
2022/12/23 05:05:08;;;;;;;11.00;8.90;;;6.10;99.90;;;;;;5071471;28;20184;-75
2022/12/23 05:07:34;;;;;;;9.23;8.32;;;6.20;99.90;;;;;;5071732;28;20175;-75
2022/12/23 05:10:00;;;;;;;10.55;9.52;;;6.20;99.90;;;;;;5064184;28;20199;-75
2022/12/23 05:12:30;;;;;;;10.60;9.50;;;6.30;99.90;;;;;;5068070;28;20649;-76
2022/12/23 05:14:56;;;;;;;13.23;9.50;;;6.30;99.90;;;;;;5071950;28;20191;-75
2022/12/23 05:17:21;;;;;;;11.95;10.00;;;6.20;99.90;;;;;;5076215;28;20186;-75
2022/12/23 05:19:47;;;;;;;12.43;10.15;;;6.20;99.90;;;;;;5063058;28;20208;-74
2022/12/23 05:22:12;;;;;;;10.73;9.13;;;6.20;99.90;;;;;;5068314;28;20186;-75
2022/12/23 05:24:38;;;;;;;10.52;9.50;;;6.20;99.90;;;;;;5067767;28;20267;-75
2022/12/23 05:27:04;;;;;;;10.27;9.27;;;6.20;99.90;;;;;;5075250;28;20175;-75
2022/12/23 05:29:29;;;;;;;9.77;8.88;;;6.20;99.90;;;;;;5068569;28;20207;-76
2022/12/23 05:31:55;;;;;;;11.60;8.52;;;6.20;99.90;;;;;;5060669;28;20203;-75
2022/12/23 05:34:20;;;;;;;11.02;9.93;;;6.30;99.90;;;;;;5061548;28;20191;-75
2022/12/23 05:36:46;;;;;;;9.32;8.32;;;6.30;99.90;;;;;;5064941;28;20193;-76
2022/12/23 05:39:12;;;;;;;9.50;8.60;;;6.30;99.90;;;;;;5063822;28;20298;-76
2022/12/23 05:41:37;;;;;;;9.50;8.40;;;6.30;99.90;;;;;;5058550;28;20191;-76
2022/12/23 05:44:03;;;;;;;8.27;7.57;;;6.40;99.90;;;;;;5064575;28;20180;-76
2022/12/23 05:46:28;;;;;;;9.57;8.63;;;6.50;99.90;;;;;;5062309;28;20721;-76
2022/12/23 05:48:54;;;;;;;8.73;7.97;;;6.50;99.90;;;;;;5063315;28;20194;-76
2022/12/23 05:51:20;;;;;;;10.48;9.10;;;6.50;99.90;;;;;;5061603;28;20194;-76
2022/12/23 05:53:45;;;;;;;11.43;9.27;;;6.50;99.90;;;;;;5059786;28;20653;-76
2022/12/23 05:56:11;;;;;;;11.15;8.63;;;6.40;99.90;;;;;;5059481;28;20282;-76
2022/12/23 05:58:36;;;;;;;10.32;9.32;;;6.40;99.90;;;;;;5060868;28;20206;-76
2022/12/23 06:01:02;;;;;;;8.80;8.00;;;6.30;99.90;;;;;;5061104;28;20215;-76
2022/12/23 06:03:28;;;;;;;9.38;8.40;;;6.40;99.90;;;;;;5061883;28;20218;-75
2022/12/23 06:05:53;;;;;;;9.07;8.18;;;6.50;99.90;;;;;;5059639;28;20222;-76
2022/12/23 06:08:20;;;;;;;10.10;7.53;;;6.40;99.90;;;;;;5062527;28;20183;-76
2022/12/23 06:10:46;;;;;;;11.90;9.23;;;6.40;99.90;;;;;;5070723;28;20190;-76
2022/12/23 06:13:12;;;;;;;9.13;8.25;;;6.50;99.90;;;;;;5084067;28;20175;-76
2022/12/23 06:15:37;;;;;;;10.20;8.63;;;6.50;99.90;;;;;;5073754;28;20232;-77
2022/12/23 06:18:03;;;;;;;10.98;8.80;;;6.50;99.90;;;;;;5073081;28;20179;-76
2022/12/23 06:20:29;;;;;;;10.05;8.23;;;6.60;99.90;;;;;;5069541;28;20206;-77
2022/12/23 06:22:54;;;;;;;19.95;10.65;;;6.50;99.90;;;;;;5065137;28;20595;-77
2022/12/23 06:25:20;;;;;;;13.02;9.48;;;6.50;99.90;;;;;;5071825;28;20179;-78
2022/12/23 06:27:46;;;;;;;10.50;9.18;;;6.40;99.90;;;;;;5064154;28;20176;-77
2022/12/23 06:30:12;;;;;;;9.80;8.85;;;6.40;99.90;;;;;;5066542;28;20282;-78
2022/12/23 06:32:37;;;;;;;12.25;9.85;;;6.50;99.90;;;;;;5064960;28;20530;-77
2022/12/23 06:35:04;;;;;;;10.88;9.75;;;6.60;99.90;;;;;;5070077;28;20194;-77
2022/12/23 06:37:29;;;;;;;10.63;9.52;;;6.60;99.90;;;;;;5071627;28;20195;-77
2022/12/23 06:39:55;;;;;;;11.30;9.32;;;6.60;99.90;;;;;;5069891;28;20207;-77
2022/12/23 06:42:20;;;;;;;12.95;9.55;;;6.70;99.90;;;;;;5071144;28;20222;-77
2022/12/23 06:44:46;;;;;;;11.27;9.00;;;6.70;99.90;;;;;;5069901;28;20176;-77
2022/12/23 06:47:11;;;;;;;11.02;9.00;;;6.70;99.90;;;;;;5073311;28;20638;-78
2022/12/23 06:49:37;;;;;;;10.48;9.02;;;6.70;99.90;;;;;;5069525;28;20639;-77
2022/12/23 06:52:03;;;;;;;11.50;9.48;;;6.60;99.90;;;;;;5075431;28;20179;-77
2022/12/23 06:54:28;;;;;;;10.15;9.07;;;6.60;99.90;;;;;;5067623;28;20190;-78
2022/12/23 06:56:54;;;;;;;10.43;8.50;;;6.60;99.90;;;;;;5071246;28;20210;-78
2022/12/23 06:59:19;;;;;;;11.20;8.85;;;6.70;99.90;;;;;;5073144;28;20207;-78
2022/12/23 07:01:45;;;;;;;8.82;8.02;;;6.70;99.90;;;;;;5067338;28;20670;-77
2022/12/23 07:04:10;;;;;;;11.35;9.77;;;6.70;99.90;;;;;;5067995;28;20187;-77
2022/12/23 07:06:38;;;;;;;12.35;10.30;;;6.70;99.90;;;;;;5077862;28;20210;-77
2022/12/23 07:09:03;;;;;;;10.25;9.10;;;6.70;99.90;;;;;;5076021;28;20191;-77
2022/12/23 07:11:29;;;;;;;9.73;8.73;;;6.60;99.90;;;;;;5072742;28;20228;-77
2022/12/23 07:13:54;;;;;;;9.23;8.32;;;6.60;99.90;;;;;;5071059;28;20320;-77
2022/12/23 07:16:20;;;;;;;11.40;9.15;;;6.60;99.90;;;;;;5068226;28;20184;-77
2022/12/23 07:18:45;;;;;;;10.25;9.25;;;6.50;99.90;;;;;;5060482;28;20287;-78
2022/12/23 07:21:11;;;;;;;11.90;9.45;;;6.60;99.90;;;;;;5070946;28;20207;-78
2022/12/23 07:23:36;;;;;;;11.77;8.32;;;6.60;99.90;;;;;;5062028;28;20646;-78
2022/12/23 07:26:02;;;;;;;11.60;8.98;;;6.70;99.90;;;;;;5063005;28;20599;-78
2022/12/23 07:28:28;;;;;;;11.52;9.73;;;6.70;99.90;;;;;;5066601;28;20185;-78
2022/12/23 07:30:53;;;;;;;12.73;9.90;;;6.70;99.90;;;;;;5068715;28;20202;-78
2022/12/23 07:33:19;;;;;;;11.07;9.75;;;6.60;99.90;;;;;;5068271;28;20187;-78
2022/12/23 07:35:44;;;;;;;10.30;9.23;;;6.60;99.90;;;;;;5067787;28;20175;-78
2022/12/23 07:38:10;;;;;;;8.27;7.40;;;6.80;99.90;;;;;;5077012;28;20186;-78
2022/12/23 07:40:36;;;;;;;8.52;7.68;;;6.80;99.90;;;;;;5062869;28;20622;-78
2022/12/23 07:43:01;;;;;;;8.57;6.78;;;6.90;99.90;;;;;;5061052;28;20660;-80
2022/12/23 07:45:28;;;;;;;9.48;8.48;;;6.90;99.90;;;;;;5071614;28;20205;-77
2022/12/23 07:47:55;;;;;;;9.48;8.48;;;7.00;99.90;;;;;;5076856;28;20171;-78
2022/12/23 07:50:21;;;;;;;10.02;8.30;;;7.00;99.90;;;;;;5069653;28;20211;-79
2022/12/23 07:52:47;;;;;;;10.93;8.45;;;6.90;99.90;;;;;;5066210;28;20727;-78
2022/12/23 07:55:12;;;;;;;10.20;8.52;;;7.00;99.90;;;;;;5069549;28;20171;-77
2022/12/23 07:57:39;;;;;;;8.60;7.22;;;7.00;99.90;;;;;;5068680;28;20182;-76
2022/12/23 08:00:10;;;;;;;9.07;8.02;;;7.10;99.90;;;;;;5075102;28;20708;-76
2022/12/23 08:02:35;;;;;;;10.60;8.27;;;7.10;99.90;;;;;;5063420;28;20561;-76
2022/12/23 08:05:01;;;;;;;9.73;8.00;;;7.20;99.90;;;;;;5069129;28;20178;-76
2022/12/23 08:07:27;;;;;;;8.10;7.30;;;7.30;99.90;;;;;;5068816;28;20276;-78
2022/12/23 08:09:52;;;;;;;7.80;7.00;;;7.20;99.90;;;;;;5069188;28;20240;-76
2022/12/23 08:12:18;;;;;;;8.88;7.93;;;7.30;99.90;;;;;;5069790;28;20905;-76
2022/12/23 08:14:44;;;;;;;8.32;7.40;;;7.40;99.90;;;;;;5068173;28;20192;-77
2022/12/23 08:17:10;;;;;;;11.52;8.93;;;7.40;99.90;;;;;;5068957;28;20189;-77
2022/12/23 08:19:36;;;;;;;10.68;8.88;;;7.40;99.90;;;;;;5065354;28;20206;-76
2022/12/23 08:22:02;;;;;;;13.57;9.15;;;7.40;99.90;;;;;;5067762;28;20560;-76
2022/12/23 08:24:27;;;;;;;10.38;8.20;;;7.30;99.90;;;;;;5064561;28;20179;-76
2022/12/23 08:26:53;;;;;;;10.00;8.43;;;7.30;99.90;;;;;;5068433;28;20179;-75
2022/12/23 08:29:19;;;;;;;8.23;7.40;;;7.50;99.90;;;;;;5060665;28;20179;-76
2022/12/23 08:31:45;;;;;;;10.30;8.23;;;7.70;99.90;;;;;;5063978;28;20186;-76
2022/12/23 08:34:11;;;;;;;18.05;8.25;;;7.80;99.90;;;;;;5060743;28;20209;-76
2022/12/23 08:36:38;;;;;;;9.90;8.20;;;7.90;99.90;;;;;;5055883;28;20188;-76
2022/12/23 08:39:07;;;;;;;10.52;9.38;;;8.00;99.90;;;;;;5064666;28;20329;-76
2022/12/23 08:41:36;;;;;;;9.02;8.13;;;8.10;99.90;;;;;;5065801;28;20195;-75
2022/12/23 08:44:02;;;;;;;8.38;7.43;;;8.20;99.90;;;;;;5062019;28;20172;-75
2022/12/23 08:46:28;;;;;;;8.57;7.68;;;8.40;99.90;;;;;;5067295;28;20238;-74
2022/12/23 08:48:53;;;;;;;10.85;8.52;;;8.50;99.90;;;;;;5073978;28;20210;-79
2022/12/23 08:51:20;;;;;;;8.88;7.97;;;8.60;99.90;;;;;;5066485;28;20298;-75
2022/12/23 08:53:47;;;;;;;9.63;7.60;;;8.90;99.90;;;;;;5065888;28;20190;-76
2022/12/23 08:56:17;;;;;;;9.50;8.50;;;9.00;99.90;;;;;;5073810;28;20201;-75
2022/12/23 08:58:45;;;;;;;10.13;8.43;;;9.10;99.90;;;;;;5064853;28;20214;-76
2022/12/23 09:01:12;;;;;;;11.65;8.05;;;9.10;99.90;;;;;;5068801;28;20314;-76
2022/12/23 09:03:38;;;;;;;8.85;7.95;;;9.20;99.90;;;;;;5066109;28;20187;-75
2022/12/23 09:06:10;;;;;;;9.38;8.38;;;9.40;99.90;;;;;;5064420;28;20210;-76
2022/12/23 09:08:36;;;;;;;10.05;8.85;;;9.60;99.90;;;;;;5063286;28;20241;-76
2022/12/23 09:11:03;;;;;;;10.90;9.80;;;9.80;99.90;;;;;;5068510;28;20191;-76
2022/12/23 09:13:29;;;;;;;9.32;7.82;;;9.90;99.90;;;;;;5065524;28;20609;-77
2022/12/23 09:15:55;;;;;;;10.45;8.57;;;10.00;99.90;;;;;;5065553;28;20196;-76
2022/12/23 09:18:20;;;;;;;4.05;3.75;;;9.80;99.90;;;;;;5069928;28;20297;-76
2022/12/23 09:20:46;;;;;;;2.70;2.30;;;9.80;99.90;;;;;;5066190;28;20203;-77
2022/12/23 09:23:12;;;;;;;2.50;2.38;;;9.70;99.90;;;;;;5066388;28;20179;-77
2022/12/23 09:25:38;;;;;;;2.85;2.53;;;9.80;99.90;;;;;;5058253;28;20642;-77
2022/12/23 09:28:05;;;;;;;2.22;2.13;;;9.90;99.90;;;;;;5069447;28;20172;-76
2022/12/23 09:30:30;;;;;;;4.15;3.80;;;10.10;99.90;;;;;;5074616;28;20195;-76
2022/12/23 09:32:56;;;;;;;3.25;3.05;;;10.20;99.90;;;;;;5078097;28;20259;-80
2022/12/23 09:35:22;;;;;;;2.60;2.40;;;10.30;99.90;;;;;;5081565;28;20180;-80
2022/12/23 09:37:47;;;;;;;3.22;2.92;;;10.20;99.90;;;;;;5075409;28;20239;-80
2022/12/23 09:40:18;;;;;;;2.70;2.50;;;10.20;99.90;;;;;;5070313;28;20206;-80
2022/12/23 09:43:06;;;;;;;3.33;3.13;;;10.20;99.90;;;;;;5075224;28;20171;-80
2022/12/23 09:45:44;;;;;;;3.28;2.95;;;10.20;99.90;;;;;;5079203;28;20180;-81
2022/12/23 09:48:18;;;;;;;2.90;2.80;;;10.30;99.90;;;;;;5076486;28;20207;-80
2022/12/23 09:50:45;;;;;;;3.85;3.35;;;10.30;99.90;;;;;;5074045;28;20206;-79
2022/12/23 09:53:18;;;;;;;3.60;3.40;;;10.30;99.90;;;;;;5072294;28;20183;-80
2022/12/23 09:55:54;;;;;;;3.45;3.15;;;10.30;99.90;;;;;;5072272;28;20183;-80
2022/12/23 09:58:26;;;;;;;3.40;3.10;;;10.30;99.90;;;;;;5077231;28;20182;-79
2022/12/23 10:01:19;;;;;;;3.30;3.10;;;10.40;99.90;;;;;;5072010;28;20191;-79
2022/12/23 10:04:22;;;;;;;3.35;3.15;;;10.50;99.90;;;;;;5074513;28;20207;-79
2022/12/23 10:07:03;;;;;;;3.33;3.13;;;10.50;99.90;;;;;;5076088;28;20178;-79
2022/12/23 10:09:36;;;;;;;3.38;3.17;;;10.60;99.90;;;;;;5078868;28;20180;-79
2022/12/23 10:12:12;;;;;;;3.53;3.33;;;10.70;99.90;;;;;;5074831;28;20733;-79
2022/12/23 10:14:39;;;;;;;4.15;3.70;;;10.60;99.90;;;;;;5070046;28;20183;-82
2022/12/23 10:17:13;;;;;;;4.05;3.75;;;10.50;99.90;;;;;;5075925;28;20189;-79
2022/12/23 10:19:40;;;;;;;4.78;4.47;;;10.50;99.90;;;;;;5077218;28;20199;-80
2022/12/23 10:22:23;;;;;;;4.95;4.65;;;10.30;99.90;;;;;;5083124;28;20187;-79
2022/12/23 10:24:49;;;;;;;4.30;4.00;;;10.30;99.90;;;;;;5076264;28;20175;-80
2022/12/23 10:27:21;;;;;;;5.95;4.65;;;10.30;99.90;;;;;;5077390;28;20179;-79
2022/12/23 10:29:46;;;;;;;5.00;4.68;;;10.30;99.90;;;;;;5082360;28;20195;-80
2022/12/23 10:32:33;;;;;;;5.97;5.57;;;10.40;99.90;;;;;;5075950;28;20262;-80
2022/12/23 10:35:37;;;;;;;5.20;4.80;;;10.50;99.90;;;;;;5064904;28;20669;-81
2022/12/23 10:38:32;;;;;;;5.13;4.78;;;10.80;99.90;;;;;;5073296;28;20202;-80
2022/12/23 10:41:25;;;;;;;6.68;5.93;;;11.10;99.90;;;;;;5076873;28;20214;-81
2022/12/23 10:44:04;;;;;;;3.95;3.75;;;11.30;99.90;;;;;;5072014;28;20175;-81
2022/12/23 10:46:32;;;;;;;4.15;3.90;;;11.50;99.90;;;;;;5076054;28;20172;-81
2022/12/23 10:49:25;;;;;;;5.13;4.63;;;11.50;99.90;;;;;;5079486;28;20187;-81
2022/12/23 10:52:11;;;;;;;4.80;4.40;;;11.50;99.90;;;;;;5080651;28;20186;-81
2022/12/23 10:54:38;;;;;;;7.72;4.47;;;11.60;99.90;;;;;;5072858;28;20182;-81
2022/12/23 10:57:05;;;;;;;6.40;5.85;;;11.50;99.90;;;;;;5080995;28;20713;-80
2022/12/23 10:59:33;;;;;;;5.65;4.82;;;11.40;99.90;;;;;;5102161;28;20210;-81
2022/12/23 11:02:26;;;;;;;5.28;4.95;;;11.40;99.90;;;;;;5083713;28;20205;-81
2022/12/23 11:04:52;;;;;;;2.90;2.70;;;11.30;99.90;;;;;;5077927;28;20645;-79
2022/12/23 11:07:19;;;;;;;4.78;4.47;;;11.20;99.90;;;;;;5078505;28;20267;-78
2022/12/23 11:10:19;;;;;;;4.50;4.13;;;11.00;99.90;;;;;;5065420;28;20218;-79
2022/12/23 11:12:48;;;;;;;4.38;4.07;;;11.10;99.90;;;;;;5072319;28;20190;-81
2022/12/23 11:15:28;;;;;;;4.57;4.28;;;11.20;99.90;;;;;;5074553;28;20706;-78
2022/12/23 11:17:58;;;;;;;4.50;4.25;;;11.30;99.90;;;;;;5073564;28;20179;-78
2022/12/23 11:20:24;;;;;;;4.68;4.38;;;11.50;99.90;;;;;;5077252;28;20302;-76
2022/12/23 11:22:52;;;;;;;4.50;4.30;;;11.50;99.90;;;;;;5067971;28;20255;-78
2022/12/23 11:25:25;;;;;;;4.85;4.55;;;11.50;99.90;;;;;;5071657;28;20179;-79
2022/12/23 11:28:01;;;;;;;4.75;4.45;;;11.50;99.90;;;;;;5075388;28;20180;-80
2022/12/23 11:30:29;;;;;;;5.10;4.70;;;11.60;99.90;;;;;;5078525;28;20197;-79
2022/12/23 11:32:56;;;;;;;4.45;4.05;;;11.50;99.90;;;;;;5079220;28;20167;-78
2022/12/23 11:35:28;;;;;;;4.50;4.20;;;11.40;99.90;;;;;;5076973;28;20185;-78
2022/12/23 11:37:55;;;;;;;4.55;4.15;;;11.30;99.90;;;;;;5069664;28;20529;-77
2022/12/23 11:40:34;;;;;;;4.18;3.97;;;11.10;99.90;;;;;;5073309;28;20302;-79
2022/12/23 11:43:06;;;;;;;4.50;4.20;;;11.10;99.90;;;;;;5071117;28;20175;-78
2022/12/23 11:45:36;;;;;;;3.65;3.35;;;11.00;99.90;;;;;;5072274;28;20172;-79
2022/12/23 11:48:05;;;;;;;4.03;3.72;;;11.00;99.90;;;;;;5077365;28;20170;-79
2022/12/23 11:50:35;;;;;;;3.60;3.40;;;11.00;99.90;;;;;;5069906;28;20543;-77
2022/12/23 11:53:21;;;;;;;3.78;3.53;;;11.00;99.90;;;;;;5060727;28;20223;-76
2022/12/23 11:56:06;;;;;;;3.67;3.38;;;11.00;99.90;;;;;;5069976;28;20186;-76
2022/12/23 11:59:08;;;;;;;3.25;3.05;;;10.90;99.90;;;;;;5068878;28;20188;-76
2022/12/23 12:01:36;;;;;;;3.97;3.58;;;10.90;99.90;;;;;;5075137;28;20251;-77
2022/12/23 12:04:05;;;;;;;4.03;3.75;;;11.00;99.90;;;;;;5073352;28;20193;-76
2022/12/23 12:06:31;;;;;;;6.53;6.00;;;10.90;99.90;;;;;;5069396;28;20205;-76
2022/12/23 12:08:59;;;;;;;3.40;3.20;;;10.80;99.90;;;;;;5065104;28;20206;-76
2022/12/23 12:11:37;;;;;;;4.18;3.70;;;10.80;99.90;;;;;;5063030;28;20203;-79
2022/12/23 12:14:06;;;;;;;3.97;3.78;;;10.80;99.90;;;;;;5068084;28;20195;-80
2022/12/23 12:16:50;;;;;;;4.07;3.80;;;10.90;99.90;;;;;;5065883;28;20549;-79
2022/12/23 12:19:32;;;;;;;4.05;3.75;;;10.70;99.90;;;;;;5066295;28;20265;-78
2022/12/23 12:22:04;;;;;;;4.10;3.90;;;10.80;99.90;;;;;;5068390;28;20175;-79
2022/12/23 12:24:46;;;;;;;4.32;4.07;;;10.80;99.90;;;;;;5073327;28;20190;-79
2022/12/23 12:27:12;;;;;;;3.95;3.63;;;10.80;99.90;;;;;;5075762;28;20187;-79
2022/12/23 12:29:55;;;;;;;5.88;4.82;;;10.80;99.90;;;;;;5071752;28;20175;-81
2022/12/23 12:32:38;;;;;;;5.07;4.68;;;10.70;99.90;;;;;;5065498;28;20274;-79
2022/12/23 12:35:22;;;;;;;4.60;4.30;;;10.70;99.90;;;;;;5064883;28;20172;-77
2022/12/23 12:37:52;;;;;;;5.43;5.03;;;10.70;99.90;;;;;;5069107;28;20258;-80
2022/12/23 12:40:29;;;;;;;5.82;5.28;;;10.60;99.90;;;;;;5069293;28;20634;-79
2022/12/23 12:43:25;;;;;;;5.35;4.88;;;10.50;99.90;;;;;;5065377;28;20187;-80
2022/12/23 12:46:18;;;;;;;6.20;5.60;;;10.40;99.90;;;;;;5068754;28;20179;-79
2022/12/23 12:48:47;;;;;;;5.07;4.78;;;10.40;99.90;;;;;;5072236;28;20262;-76
2022/12/23 12:51:23;;;;;;;6.00;5.50;;;10.40;99.90;;;;;;5070383;28;20332;-78
2022/12/23 12:54:14;;;;;;;6.20;5.60;;;10.40;99.90;;;;;;5066177;28;20180;-78
2022/12/23 12:56:45;;;;;;;5.47;5.07;;;10.30;99.90;;;;;;5055601;28;20192;-77
2022/12/23 12:59:27;;;;;;;6.70;6.10;;;10.40;99.90;;;;;;5066264;28;20207;-77
2022/12/23 13:02:07;;;;;;;7.18;6.57;;;10.30;99.90;;;;;;5061510;28;20188;-76
